createdAt,value
2023-01-22T00:00:00.315Z,6.34
2023-01-22T00:01:02.204Z,6.21
2023-01-22T00:01:43.283Z,6.32
2023-01-22T00:02:23.215Z,6.43
2023-01-22T00:03:03.234Z,6.43
2023-01-22T00:03:46.598Z,6.41
2023-01-22T00:04:27.248Z,6.47
2023-01-22T00:05:07.187Z,6.52
2023-01-22T00:05:47.279Z,6.47
2023-01-22T00:06:30.195Z,6.54
2023-01-22T00:07:11.371Z,6.48
2023-01-22T00:07:52.169Z,6.22
2023-01-22T00:08:32.260Z,6.34
2023-01-22T00:09:12.210Z,6.34
2023-01-22T00:09:52.682Z,6.44
2023-01-22T00:10:33.199Z,6.43
2023-01-22T00:11:14.238Z,6.39
2023-01-22T00:11:57.187Z,6.39
2023-01-22T00:12:37.266Z,6.28
2023-01-22T00:13:17.160Z,6.18
2023-01-22T00:13:57.228Z,6.24
2023-01-22T00:14:37.202Z,6.09
2023-01-22T00:15:17.204Z,6.20
2023-01-22T00:15:57.227Z,6.24
2023-01-22T00:16:37.242Z,6.32
2023-01-22T00:17:17.196Z,6.27
2023-01-22T00:17:57.255Z,6.33
2023-01-22T00:18:37.176Z,6.16
2023-01-22T00:19:18.244Z,6.31
2023-01-22T00:19:58.164Z,6.22
2023-01-22T00:20:39.314Z,6.13
2023-01-22T00:21:20.159Z,6.22
2023-01-22T00:22:00.202Z,6.03
2023-01-22T00:22:40.175Z,6.20
2023-01-22T00:23:21.235Z,6.15
2023-01-22T00:24:01.186Z,6.17
2023-01-22T00:24:41.337Z,5.99
2023-01-22T00:25:21.156Z,6.09
2023-01-22T00:26:11.150Z,6.29
2023-01-22T00:26:52.158Z,6.23
2023-01-22T00:27:33.204Z,6.26
2023-01-22T00:28:14.172Z,6.21
2023-01-22T00:28:54.219Z,6.27
2023-01-22T00:29:34.134Z,6.17
2023-01-22T00:30:15.656Z,6.28
2023-01-22T00:31:07.319Z,6.28
2023-01-22T00:31:48.335Z,6.16
2023-01-22T00:32:28.157Z,6.21
2023-01-22T00:33:08.228Z,6.16
2023-01-22T00:33:48.195Z,5.97
2023-01-22T00:34:28.196Z,5.92
2023-01-22T00:35:08.165Z,6.10
2023-01-22T00:35:48.201Z,6.11
2023-01-22T00:36:30.156Z,6.25
2023-01-22T00:37:10.211Z,6.09
2023-01-22T00:37:50.137Z,6.21
2023-01-22T00:38:30.210Z,6.22
2023-01-22T00:39:10.188Z,6.18
2023-01-22T00:39:50.193Z,6.04
2023-01-22T00:40:31.148Z,5.97
2023-01-22T00:41:13.211Z,6.18
2023-01-22T00:41:53.151Z,6.13
2023-01-22T00:42:33.255Z,6.10
2023-01-22T00:43:13.159Z,6.24
2023-01-22T00:43:53.218Z,6.17
2023-01-22T00:44:34.418Z,6.16
2023-01-22T00:45:15.272Z,6.18
2023-01-22T00:45:55.140Z,6.21
2023-01-22T00:46:36.230Z,6.21
2023-01-22T00:47:16.142Z,6.21
2023-01-22T00:47:56.200Z,6.23
2023-01-22T00:48:36.126Z,6.17
2023-01-22T00:49:16.242Z,6.19
2023-01-22T00:49:56.194Z,6.24
2023-01-22T00:50:36.187Z,6.17
2023-01-22T00:51:16.189Z,5.92
2023-01-22T00:51:56.185Z,6.16
2023-01-22T00:52:36.120Z,6.12
2023-01-22T00:53:16.182Z,5.89
2023-01-22T00:53:56.142Z,5.93
2023-01-22T00:54:38.425Z,6.02
2023-01-22T00:55:18.145Z,6.12
2023-01-22T00:56:01.206Z,6.11
2023-01-22T00:56:41.156Z,6.12
2023-01-22T00:57:21.963Z,6.13
2023-01-22T00:58:02.142Z,6.17
2023-01-22T00:58:42.176Z,6.19
2023-01-22T00:59:22.131Z,6.32
2023-01-22T01:00:02.285Z,6.30
2023-01-22T01:00:42.186Z,6.31
2023-01-22T01:01:23.153Z,6.38
2023-01-22T01:02:03.165Z,6.44
2023-01-22T01:03:01.861Z,6.39
2023-01-22T01:03:50.120Z,6.52
2023-01-22T01:04:24.215Z,6.31
2023-01-22T01:05:11.114Z,6.59
2023-01-22T01:05:52.138Z,6.60
2023-01-22T01:06:46.115Z,6.50
2023-01-22T01:07:40.122Z,6.61
2023-01-22T01:08:35.102Z,6.58
2023-01-22T01:09:29.123Z,6.61
2023-01-22T01:10:24.114Z,6.60
2023-01-22T01:11:15.153Z,6.65
2023-01-22T01:11:49.228Z,6.67
2023-01-22T01:12:36.121Z,6.57
2023-01-22T01:13:10.414Z,6.70
2023-01-22T01:13:58.121Z,6.68
2023-01-22T01:14:32.177Z,6.74
2023-01-22T01:15:19.098Z,6.64
2023-01-22T01:15:53.172Z,6.76
2023-01-22T01:16:41.129Z,6.71
2023-01-22T01:17:15.168Z,6.70
2023-01-22T01:18:02.121Z,6.62
2023-01-22T01:18:37.155Z,6.68
2023-01-22T01:19:25.091Z,6.68
2023-01-22T01:19:59.140Z,6.59
2023-01-22T01:20:47.086Z,6.51
2023-01-22T01:21:21.186Z,6.48
2023-01-22T01:22:01.144Z,6.46
2023-01-22T01:22:41.158Z,6.18
2023-01-22T01:23:22.106Z,6.31
2023-01-22T01:24:04.193Z,6.33
2023-01-22T01:24:44.092Z,6.30
2023-01-22T01:25:24.136Z,6.49
2023-01-22T01:26:04.084Z,6.17
2023-01-22T01:26:46.152Z,6.34
2023-01-22T01:27:27.120Z,6.33
2023-01-22T01:28:07.124Z,6.24
2023-01-22T01:28:48.091Z,6.32
2023-01-22T01:29:28.144Z,6.41
2023-01-22T01:30:09.108Z,6.58
2023-01-22T01:30:49.190Z,6.46
2023-01-22T01:31:32.146Z,6.56
2023-01-22T01:32:13.135Z,6.41
2023-01-22T01:32:53.110Z,6.50
2023-01-22T01:33:33.149Z,6.54
2023-01-22T01:34:13.075Z,6.55
2023-01-22T01:34:53.149Z,6.61
2023-01-22T01:35:33.107Z,6.72
2023-01-22T01:36:47.711Z,6.60
2023-01-22T01:37:29.099Z,6.70
2023-01-22T01:38:10.102Z,6.70
2023-01-22T01:38:44.199Z,6.55
2023-01-22T01:39:31.078Z,6.59
2023-01-22T01:40:05.113Z,6.65
2023-01-22T01:40:52.066Z,6.58
2023-01-22T01:41:30.192Z,6.74
2023-01-22T01:42:18.090Z,6.76
2023-01-22T01:42:53.133Z,6.75
2023-01-22T01:43:34.111Z,6.73
2023-01-22T01:44:30.238Z,6.80
2023-01-22T01:45:31.076Z,6.83
2023-01-22T01:46:18.225Z,6.84
2023-01-22T01:47:12.058Z,6.69
2023-01-22T01:47:53.164Z,6.80
2023-01-22T01:48:50.111Z,6.85
2023-01-22T01:49:36.180Z,6.81
2023-01-22T01:50:17.293Z,6.75
2023-01-22T01:51:23.276Z,6.73
2023-01-22T01:52:08.065Z,6.80
2023-01-22T01:52:48.132Z,6.73
2023-01-22T01:53:28.058Z,6.63
2023-01-22T01:54:11.104Z,6.79
2023-01-22T01:54:46.190Z,6.70
2023-01-22T01:55:38.081Z,6.71
2023-01-22T01:56:19.157Z,6.73
2023-01-22T01:57:14.058Z,6.74
2023-01-22T01:57:48.136Z,6.75
2023-01-22T01:58:40.070Z,6.63
2023-01-22T01:59:25.101Z,6.77
2023-01-22T02:00:23.056Z,6.75
2023-01-22T02:01:26.070Z,6.75
2023-01-22T02:02:20.093Z,6.78
2023-01-22T02:03:14.078Z,6.80
2023-01-22T02:04:09.066Z,6.85
2023-01-22T02:04:50.076Z,6.75
2023-01-22T02:05:31.125Z,6.83
2023-01-22T02:06:12.033Z,6.87
2023-01-22T02:06:52.136Z,6.88
2023-01-22T02:07:32.063Z,6.91
2023-01-22T02:08:14.117Z,6.72
2023-01-22T02:08:57.075Z,6.85
2023-01-22T02:09:37.128Z,6.87
2023-01-22T02:10:18.406Z,6.84
2023-01-22T02:11:00.119Z,6.93
2023-01-22T02:11:41.062Z,6.81
2023-01-22T02:12:21.088Z,6.92
2023-01-22T02:13:05.073Z,6.96
2023-01-22T02:13:51.536Z,6.76
2023-01-22T02:14:38.048Z,6.92
2023-01-22T02:15:18.100Z,6.89
2023-01-22T02:15:58.112Z,6.80
2023-01-22T02:16:38.203Z,6.86
2023-01-22T02:17:21.062Z,6.91
2023-01-22T02:18:01.103Z,6.79
2023-01-22T02:18:41.040Z,6.88
2023-01-22T02:19:21.089Z,6.84
2023-01-22T02:20:01.031Z,6.82
2023-01-22T02:20:45.130Z,6.71
2023-01-22T02:21:47.084Z,6.79
2023-01-22T02:22:37.177Z,6.61
2023-01-22T02:23:17.037Z,6.69
2023-01-22T02:23:57.091Z,6.74
2023-01-22T02:24:38.030Z,6.65
2023-01-22T02:25:18.061Z,6.67
2023-01-22T02:25:59.022Z,6.63
2023-01-22T02:26:39.078Z,6.59
2023-01-22T02:27:19.086Z,6.42
2023-01-22T02:27:59.108Z,6.43
2023-01-22T02:28:39.035Z,6.54
2023-01-22T02:29:21.157Z,6.57
2023-01-22T02:30:02.021Z,6.58
2023-01-22T02:30:42.176Z,6.62
2023-01-22T02:31:23.049Z,6.75
2023-01-22T02:32:03.064Z,6.71
2023-01-22T02:32:43.047Z,6.74
2023-01-22T02:33:24.125Z,6.75
2023-01-22T02:34:05.031Z,6.60
2023-01-22T02:34:45.082Z,6.74
2023-01-22T02:35:25.025Z,6.75
2023-01-22T02:36:05.097Z,6.49
2023-01-22T02:36:47.022Z,6.53
2023-01-22T02:37:27.059Z,6.71
2023-01-22T02:38:08.042Z,6.63
2023-01-22T02:38:48.054Z,6.70
2023-01-22T02:39:28.053Z,6.68
2023-01-22T02:40:08.094Z,6.79
2023-01-22T02:40:55.021Z,6.81
2023-01-22T02:41:35.056Z,6.76
2023-01-22T02:42:16.014Z,6.81
2023-01-22T02:42:56.064Z,6.87
2023-01-22T02:43:36.024Z,6.72
2023-01-22T02:44:16.065Z,6.72
2023-01-22T02:44:58.994Z,6.68
2023-01-22T02:45:39.074Z,6.79
2023-01-22T02:46:20.003Z,6.75
2023-01-22T02:47:00.089Z,6.67
2023-01-22T02:47:43.014Z,6.78
2023-01-22T02:48:23.070Z,6.83
2023-01-22T02:49:03.032Z,6.74
2023-01-22T02:49:43.081Z,6.83
2023-01-22T02:50:24.011Z,6.87
2023-01-22T02:51:04.112Z,6.90
2023-01-22T02:51:44.010Z,6.88
2023-01-22T02:52:24.049Z,6.89
2023-01-22T02:53:04.025Z,6.78
2023-01-22T02:53:44.068Z,6.92
2023-01-22T02:54:25.086Z,6.87
2023-01-22T02:55:07.109Z,6.89
2023-01-22T02:55:47.997Z,6.83
2023-01-22T02:56:29.168Z,6.73
2023-01-22T02:57:09.015Z,6.47
2023-01-22T02:57:49.047Z,6.54
2023-01-22T02:58:30.004Z,6.60
2023-01-22T02:59:11.036Z,6.47
2023-01-22T02:59:51.025Z,6.66
2023-01-22T03:00:31.072Z,6.67
2023-01-22T03:01:31.014Z,6.63
2023-01-22T03:02:11.122Z,6.62
2023-01-22T03:02:52.004Z,6.58
2023-01-22T03:03:32.062Z,6.62
2023-01-22T03:04:19.008Z,6.68
2023-01-22T03:05:11.008Z,6.72
2023-01-22T03:06:06.015Z,6.67
2023-01-22T03:06:59.998Z,6.72
2023-01-22T03:07:53.999Z,6.61
2023-01-22T03:08:47.992Z,6.68
2023-01-22T03:09:41.994Z,6.70
2023-01-22T03:10:29.007Z,6.57
2023-01-22T03:11:06.131Z,6.61
2023-01-22T03:11:53.971Z,6.44
2023-01-22T03:12:28.027Z,6.57
2023-01-22T03:13:33.994Z,6.42
2023-01-22T03:14:26.673Z,6.62
2023-01-22T03:15:34.001Z,6.52
2023-01-22T03:16:29.644Z,6.59
2023-01-22T03:17:35.992Z,6.58
2023-01-22T03:18:28.696Z,6.70
2023-01-22T03:19:35.002Z,6.69
2023-01-22T03:20:27.638Z,6.70
2023-01-22T03:21:25.002Z,6.81
2023-01-22T03:22:05.019Z,6.74
2023-01-22T03:22:44.986Z,6.79
2023-01-22T03:23:28.063Z,6.81
2023-01-22T03:24:08.009Z,6.91
2023-01-22T03:24:51.142Z,6.76
2023-01-22T03:25:31.994Z,6.80
2023-01-22T03:26:13.048Z,6.93
2023-01-22T03:26:53.002Z,6.80
2023-01-22T03:27:36.731Z,6.91
2023-01-22T03:28:25.017Z,6.80
2023-01-22T03:29:05.035Z,6.74
2023-01-22T03:29:45.961Z,6.81
2023-01-22T03:30:26.021Z,6.76
2023-01-22T03:31:06.000Z,6.86
2023-01-22T03:31:48.393Z,6.84
2023-01-22T03:32:28.991Z,6.75
2023-01-22T03:33:09.020Z,6.79
2023-01-22T03:33:49.975Z,6.78
2023-01-22T03:34:32.015Z,6.87
2023-01-22T03:35:11.967Z,6.93
2023-01-22T03:35:52.024Z,6.92
2023-01-22T03:36:31.954Z,6.81
2023-01-22T03:37:13.008Z,6.93
2023-01-22T03:37:54.957Z,6.88
2023-01-22T03:38:35.028Z,6.82
2023-01-22T03:39:14.967Z,6.82
2023-01-22T03:40:08.979Z,6.88
2023-01-22T03:41:02.968Z,6.85
2023-01-22T03:41:56.954Z,6.91
2023-01-22T03:42:50.955Z,6.70
2023-01-22T03:43:30.976Z,6.79
2023-01-22T03:44:14.162Z,6.89
2023-01-22T03:44:54.957Z,6.75
2023-01-22T03:45:35.038Z,6.57
2023-01-22T03:46:21.971Z,6.69
2023-01-22T03:47:02.091Z,6.67
2023-01-22T03:47:41.950Z,6.59
2023-01-22T03:48:21.997Z,6.53
2023-01-22T03:49:02.972Z,6.53
2023-01-22T03:49:42.986Z,6.32
2023-01-22T03:50:22.942Z,6.32
2023-01-22T03:51:03.009Z,6.34
2023-01-22T03:51:43.976Z,6.17
2023-01-22T03:52:24.011Z,6.17
2023-01-22T03:53:04.956Z,6.42
2023-01-22T03:53:46.002Z,6.39
2023-01-22T03:54:25.992Z,6.52
2023-01-22T03:55:05.986Z,6.37
2023-01-22T03:55:45.946Z,6.43
2023-01-22T03:56:28.999Z,6.51
2023-01-22T03:57:08.942Z,6.44
2023-01-22T03:57:48.981Z,6.56
2023-01-22T03:58:28.942Z,6.47
2023-01-22T03:59:08.987Z,6.51
2023-01-22T03:59:48.958Z,6.30
2023-01-22T04:00:29.314Z,6.50
2023-01-22T04:01:12.989Z,6.32
2023-01-22T04:01:53.697Z,6.33
2023-01-22T04:02:34.975Z,6.35
2023-01-22T04:03:14.979Z,6.39
2023-01-22T04:03:55.923Z,6.48
2023-01-22T04:04:35.991Z,6.48
2023-01-22T04:05:16.959Z,6.48
2023-01-22T04:06:00.112Z,6.55
2023-01-22T04:06:39.932Z,6.50
2023-01-22T04:07:20.062Z,6.50
2023-01-22T04:07:59.926Z,6.53
2023-01-22T04:08:41.998Z,6.53
2023-01-22T04:09:22.927Z,6.55
2023-01-22T04:10:03.027Z,6.52
2023-01-22T04:10:42.947Z,6.54
2023-01-22T04:11:23.064Z,6.57
2023-01-22T04:12:02.935Z,6.59
2023-01-22T04:12:42.974Z,6.57
2023-01-22T04:13:22.917Z,6.66
2023-01-22T04:14:03.015Z,6.65
2023-01-22T04:14:42.913Z,6.62
2023-01-22T04:15:22.985Z,6.69
2023-01-22T04:16:02.943Z,6.68
2023-01-22T04:16:43.141Z,6.59
2023-01-22T04:17:23.685Z,6.65
2023-01-22T04:18:05.020Z,6.70
2023-01-22T04:18:45.927Z,6.62
2023-01-22T04:19:25.966Z,6.43
2023-01-22T04:20:05.921Z,6.56
2023-01-22T04:20:47.011Z,6.59
2023-01-22T04:21:26.963Z,6.59
2023-01-22T04:22:07.001Z,6.42
2023-01-22T04:22:46.911Z,6.49
2023-01-22T04:23:27.955Z,6.63
2023-01-22T04:24:07.937Z,6.55
2023-01-22T04:24:47.993Z,6.68
2023-01-22T04:25:27.926Z,6.46
2023-01-22T04:26:08.042Z,6.64
2023-01-22T04:26:47.966Z,6.55
2023-01-22T04:27:31.044Z,6.60
2023-01-22T04:28:12.891Z,6.50
2023-01-22T04:28:53.029Z,6.55
2023-01-22T04:29:32.892Z,6.56
2023-01-22T04:30:13.942Z,6.64
2023-01-22T04:30:57.017Z,6.47
2023-01-22T04:31:38.014Z,6.49
2023-01-22T04:32:17.932Z,6.55
2023-01-22T04:32:57.964Z,6.60
2023-01-22T04:33:38.905Z,6.52
2023-01-22T04:34:19.020Z,6.54
2023-01-22T04:34:58.893Z,6.53
2023-01-22T04:35:38.976Z,6.67
2023-01-22T04:36:19.898Z,6.64
2023-01-22T04:36:59.958Z,6.63
2023-01-22T04:37:39.943Z,6.58
2023-01-22T04:38:20.986Z,6.49
2023-01-22T04:39:00.903Z,6.55
2023-01-22T04:39:40.956Z,6.70
2023-01-22T04:40:21.897Z,6.73
2023-01-22T04:41:01.955Z,6.67
2023-01-22T04:41:41.893Z,6.61
2023-01-22T04:42:21.952Z,6.71
2023-01-22T04:43:01.911Z,6.67
2023-01-22T04:43:41.972Z,6.75
2023-01-22T04:44:22.897Z,6.68
2023-01-22T04:45:02.958Z,6.65
2023-01-22T04:45:43.953Z,6.58
2023-01-22T04:46:24.025Z,6.70
2023-01-22T04:47:03.896Z,6.71
2023-01-22T04:47:54.949Z,6.70
2023-01-22T04:48:35.943Z,6.79
2023-01-22T04:49:15.936Z,6.71
2023-01-22T04:49:56.883Z,6.74
2023-01-22T04:50:38.961Z,6.64
2023-01-22T04:51:18.938Z,6.77
2023-01-22T04:51:58.955Z,6.69
2023-01-22T04:52:39.889Z,6.71
2023-01-22T04:53:19.933Z,6.79
2023-01-22T04:53:59.946Z,6.73
2023-01-22T04:54:39.941Z,6.67
2023-01-22T04:55:19.878Z,6.77
2023-01-22T04:55:59.930Z,6.85
2023-01-22T04:56:40.900Z,6.63
2023-01-22T04:57:20.957Z,6.68
2023-01-22T04:58:05.902Z,6.75
2023-01-22T04:58:45.952Z,6.70
2023-01-22T04:59:25.935Z,6.75
2023-01-22T05:00:05.985Z,6.80
2023-01-22T05:00:46.869Z,6.78
2023-01-22T05:01:26.945Z,6.57
2023-01-22T05:02:06.903Z,6.63
2023-01-22T05:02:47.981Z,6.64
2023-01-22T05:03:28.009Z,6.71
2023-01-22T05:04:10.965Z,6.72
2023-01-22T05:04:51.895Z,6.60
2023-01-22T05:05:32.928Z,6.73
2023-01-22T05:06:13.876Z,6.61
2023-01-22T05:07:07.866Z,6.79
2023-01-22T05:08:01.862Z,6.57
2023-01-22T05:08:55.862Z,6.69
2023-01-22T05:09:49.874Z,6.65
2023-01-22T05:10:30.864Z,6.67
2023-01-22T05:11:10.931Z,6.58
2023-01-22T05:11:50.912Z,6.67
2023-01-22T05:12:30.946Z,6.60
2023-01-22T05:13:12.879Z,6.64
2023-01-22T05:13:52.921Z,6.62
2023-01-22T05:14:32.852Z,6.63
2023-01-22T05:15:23.502Z,6.68
2023-01-22T05:16:02.962Z,6.63
2023-01-22T05:16:49.873Z,6.70
2023-01-22T05:17:23.925Z,6.67
2023-01-22T05:18:10.863Z,6.77
2023-01-22T05:18:44.911Z,6.77
2023-01-22T05:19:31.865Z,6.54
2023-01-22T05:20:05.903Z,6.57
2023-01-22T05:20:45.870Z,6.70
2023-01-22T05:21:25.972Z,6.63
2023-01-22T05:22:06.848Z,6.55
2023-01-22T05:22:46.925Z,6.59
2023-01-22T05:23:26.858Z,6.59
2023-01-22T05:24:06.925Z,6.65
2023-01-22T05:24:46.861Z,6.64
2023-01-22T05:25:26.893Z,6.42
2023-01-22T05:26:07.884Z,6.35
2023-01-22T05:26:47.893Z,6.49
2023-01-22T05:27:27.856Z,6.36
2023-01-22T05:28:07.898Z,6.52
2023-01-22T05:28:47.828Z,6.55
2023-01-22T05:29:28.003Z,6.49
2023-01-22T05:30:08.852Z,6.52
2023-01-22T05:30:49.060Z,6.51
2023-01-22T05:31:29.958Z,6.52
2023-01-22T05:32:09.931Z,6.62
2023-01-22T05:32:49.836Z,6.63
2023-01-22T05:33:29.945Z,6.54
2023-01-22T05:34:10.834Z,6.48
2023-01-22T05:34:50.948Z,6.56
2023-01-22T05:35:30.845Z,6.44
2023-01-22T05:36:14.821Z,6.59
2023-01-22T05:36:55.869Z,6.39
2023-01-22T05:37:36.886Z,6.53
2023-01-22T05:38:17.865Z,6.53
2023-01-22T05:38:57.959Z,6.44
2023-01-22T05:39:37.858Z,6.54
2023-01-22T05:40:19.205Z,6.52
2023-01-22T05:40:58.839Z,6.51
2023-01-22T05:41:38.889Z,6.38
2023-01-22T05:42:22.861Z,6.39
2023-01-22T05:43:02.897Z,6.30
2023-01-22T05:43:45.845Z,6.39
2023-01-22T05:44:26.193Z,6.37
2023-01-22T05:45:05.840Z,6.28
2023-01-22T05:45:45.896Z,6.25
2023-01-22T05:46:26.910Z,6.26
2023-01-22T05:47:06.884Z,6.32
2023-01-22T05:47:46.833Z,6.31
2023-01-22T05:48:26.868Z,6.24
2023-01-22T05:49:06.837Z,6.18
2023-01-22T05:49:46.888Z,6.27
2023-01-22T05:50:28.831Z,6.25
2023-01-22T05:51:10.948Z,6.26
2023-01-22T05:51:50.830Z,6.22
2023-01-22T05:52:30.887Z,6.28
2023-01-22T05:53:10.838Z,6.36
2023-01-22T05:53:51.864Z,6.19
2023-01-22T05:54:32.813Z,6.20
2023-01-22T05:55:14.995Z,6.31
2023-01-22T05:55:54.833Z,6.37
2023-01-22T05:56:34.911Z,6.32
2023-01-22T05:57:14.847Z,6.44
2023-01-22T05:57:54.880Z,6.36
2023-01-22T05:58:38.848Z,6.24
2023-01-22T05:59:18.871Z,6.29
2023-01-22T05:59:58.810Z,6.19
2023-01-22T06:00:38.865Z,6.16
2023-01-22T06:01:19.798Z,6.43
2023-01-22T06:02:14.863Z,6.38
2023-01-22T06:03:11.823Z,6.27
2023-01-22T06:03:59.916Z,6.37
2023-01-22T06:04:33.880Z,6.21
2023-01-22T06:05:20.843Z,6.35
2023-01-22T06:05:54.857Z,6.26
2023-01-22T06:06:41.815Z,6.22
2023-01-22T06:07:15.902Z,6.18
2023-01-22T06:08:02.815Z,6.11
2023-01-22T06:08:36.935Z,6.17
2023-01-22T06:09:23.841Z,6.27
2023-01-22T06:09:57.860Z,6.34
2023-01-22T06:10:44.828Z,6.32
2023-01-22T06:11:21.939Z,6.30
2023-01-22T06:12:08.798Z,6.31
2023-01-22T06:12:42.927Z,6.30
2023-01-22T06:13:29.807Z,6.04
2023-01-22T06:14:04.123Z,6.24
2023-01-22T06:14:43.829Z,6.29
2023-01-22T06:15:23.880Z,6.18
2023-01-22T06:16:04.882Z,6.20
2023-01-22T06:16:44.875Z,6.24
2023-01-22T06:17:24.814Z,6.31
2023-01-22T06:18:09.247Z,6.31
2023-01-22T06:18:48.795Z,6.31
2023-01-22T06:19:28.828Z,6.36
2023-01-22T06:20:09.806Z,6.41
2023-01-22T06:20:49.827Z,6.42
2023-01-22T06:21:29.812Z,6.29
2023-01-22T06:22:09.923Z,6.26
2023-01-22T06:22:49.800Z,6.40
2023-01-22T06:23:29.871Z,6.41
2023-01-22T06:24:10.805Z,6.37
2023-01-22T06:24:50.858Z,6.39
2023-01-22T06:25:31.826Z,6.33
2023-01-22T06:26:11.863Z,6.39
2023-01-22T06:26:51.783Z,6.23
2023-01-22T06:27:31.820Z,6.39
2023-01-22T06:28:11.808Z,6.16
2023-01-22T06:28:52.309Z,6.07
2023-01-22T06:29:32.974Z,6.19
2023-01-22T06:30:13.836Z,6.11
2023-01-22T06:30:54.881Z,6.29
2023-01-22T06:31:35.927Z,6.27
2023-01-22T06:32:16.772Z,6.21
2023-01-22T06:32:59.826Z,6.36
2023-01-22T06:33:44.790Z,6.36
2023-01-22T06:34:24.964Z,6.25
2023-01-22T06:35:04.788Z,6.21
2023-01-22T06:35:44.856Z,6.05
2023-01-22T06:36:24.813Z,6.17
2023-01-22T06:37:04.852Z,5.98
2023-01-22T06:37:44.779Z,5.75
2023-01-22T06:38:24.847Z,5.99
2023-01-22T06:39:04.762Z,6.12
2023-01-22T06:39:44.867Z,6.13
2023-01-22T06:40:25.773Z,6.03
2023-01-22T06:41:06.939Z,6.23
2023-01-22T06:41:46.802Z,6.20
2023-01-22T06:42:26.829Z,6.34
2023-01-22T06:43:11.802Z,6.25
2023-01-22T06:43:51.844Z,6.36
2023-01-22T06:44:31.777Z,6.29
2023-01-22T06:45:12.815Z,6.32
2023-01-22T06:45:52.762Z,6.39
2023-01-22T06:46:32.832Z,6.32
2023-01-22T06:47:12.777Z,6.37
2023-01-22T06:47:53.828Z,6.41
2023-01-22T06:48:33.774Z,6.28
2023-01-22T06:49:16.856Z,6.38
2023-01-22T06:49:56.768Z,6.43
2023-01-22T06:50:36.833Z,6.45
2023-01-22T06:51:17.811Z,6.36
2023-01-22T06:51:57.807Z,6.42
2023-01-22T06:52:37.771Z,6.42
2023-01-22T06:53:17.856Z,6.48
2023-01-22T06:53:57.771Z,6.52
2023-01-22T06:54:37.819Z,6.48
2023-01-22T06:55:17.776Z,6.46
2023-01-22T06:55:57.830Z,6.41
2023-01-22T06:56:38.767Z,6.53
2023-01-22T06:57:18.874Z,6.53
2023-01-22T06:58:01.778Z,6.43
2023-01-22T06:58:41.848Z,6.28
2023-01-22T06:59:21.773Z,6.29
2023-01-22T07:00:04.676Z,6.26
2023-01-22T07:00:44.767Z,6.30
2023-01-22T07:01:25.956Z,6.34
2023-01-22T07:02:05.756Z,6.48
2023-01-22T07:02:45.807Z,6.37
2023-01-22T07:03:25.813Z,6.54
2023-01-22T07:04:06.801Z,6.54
2023-01-22T07:04:46.742Z,6.41
2023-01-22T07:05:27.878Z,6.58
2023-01-22T07:06:10.779Z,6.59
2023-01-22T07:06:50.860Z,6.57
2023-01-22T07:07:30.770Z,6.47
2023-01-22T07:08:10.833Z,6.46
2023-01-22T07:08:51.782Z,6.45
2023-01-22T07:09:31.814Z,6.46
2023-01-22T07:10:12.785Z,6.53
2023-01-22T07:10:52.783Z,6.41
2023-01-22T07:11:32.745Z,6.38
2023-01-22T07:12:12.780Z,6.35
2023-01-22T07:12:52.729Z,6.52
2023-01-22T07:13:32.792Z,6.43
2023-01-22T07:14:12.850Z,6.38
2023-01-22T07:14:52.817Z,6.53
2023-01-22T07:15:33.746Z,6.37
2023-01-22T07:16:14.857Z,6.55
2023-01-22T07:16:54.742Z,6.53
2023-01-22T07:17:34.939Z,6.36
2023-01-22T07:18:16.760Z,6.44
2023-01-22T07:18:56.791Z,6.39
2023-01-22T07:19:36.746Z,6.37
2023-01-22T07:20:19.113Z,6.31
2023-01-22T07:20:59.739Z,6.28
2023-01-22T07:21:39.808Z,6.30
2023-01-22T07:22:19.733Z,6.37
2023-01-22T07:23:00.207Z,6.41
2023-01-22T07:23:41.730Z,6.38
2023-01-22T07:24:23.119Z,6.39
2023-01-22T07:25:02.760Z,6.32
2023-01-22T07:25:44.598Z,6.27
2023-01-22T07:26:24.894Z,6.30
2023-01-22T07:27:04.802Z,6.41
2023-01-22T07:27:44.739Z,6.31
2023-01-22T07:28:24.793Z,6.42
2023-01-22T07:29:04.726Z,6.37
2023-01-22T07:29:44.826Z,6.44
2023-01-22T07:30:24.783Z,6.43
2023-01-22T07:31:05.213Z,6.28
2023-01-22T07:31:44.761Z,6.26
2023-01-22T07:32:25.833Z,6.21
2023-01-22T07:33:09.731Z,6.32
2023-01-22T07:33:50.055Z,6.36
2023-01-22T07:34:29.729Z,6.33
2023-01-22T07:35:09.798Z,6.46
2023-01-22T07:35:49.737Z,6.43
2023-01-22T07:36:29.762Z,6.30
2023-01-22T07:37:10.722Z,6.40
2023-01-22T07:37:57.762Z,6.35
2023-01-22T07:38:38.706Z,6.28
2023-01-22T07:39:18.806Z,6.16
2023-01-22T07:39:58.747Z,6.34
2023-01-22T07:40:38.815Z,6.26
2023-01-22T07:41:25.778Z,6.03
2023-01-22T07:42:06.770Z,6.28
2023-01-22T07:42:46.708Z,6.18
2023-01-22T07:43:26.770Z,6.35
2023-01-22T07:44:07.725Z,6.35
2023-01-22T07:44:47.746Z,6.18
2023-01-22T07:45:30.730Z,6.13
2023-01-22T07:46:11.899Z,6.13
2023-01-22T07:46:51.786Z,6.19
2023-01-22T07:47:31.773Z,6.06
2023-01-22T07:48:14.738Z,6.05
2023-01-22T07:48:54.758Z,6.01
2023-01-22T07:49:34.706Z,6.15
2023-01-22T07:50:15.985Z,6.13
2023-01-22T07:50:55.741Z,6.18
2023-01-22T07:51:35.823Z,6.27
2023-01-22T07:52:16.717Z,6.18
2023-01-22T07:52:56.938Z,6.21
2023-01-22T07:53:36.725Z,6.17
2023-01-22T07:54:18.510Z,6.25
2023-01-22T07:54:58.702Z,6.22
2023-01-22T07:55:38.767Z,6.08
2023-01-22T07:56:19.727Z,6.14
2023-01-22T07:56:59.759Z,5.92
2023-01-22T07:57:39.723Z,5.93
2023-01-22T07:58:19.801Z,6.00
2023-01-22T07:58:59.719Z,5.97
2023-01-22T07:59:42.996Z,6.01
2023-01-22T08:00:23.758Z,5.98
2023-01-22T08:01:03.827Z,5.97
2023-01-22T08:01:43.760Z,5.88
2023-01-22T08:02:23.826Z,5.86
2023-01-22T08:03:03.732Z,5.96
2023-01-22T08:03:45.276Z,5.79
2023-01-22T08:04:26.689Z,5.85
2023-01-22T08:05:06.753Z,5.83
2023-01-22T08:05:48.724Z,5.77
2023-01-22T08:06:29.755Z,5.79
2023-01-22T08:07:09.729Z,5.75
2023-01-22T08:07:49.850Z,5.73
2023-01-22T08:08:30.724Z,5.77
2023-01-22T08:09:12.743Z,5.78
2023-01-22T08:09:52.723Z,5.80
2023-01-22T08:10:33.788Z,5.81
2023-01-22T08:11:14.698Z,5.74
2023-01-22T08:11:54.765Z,5.82
2023-01-22T08:12:35.689Z,5.80
2023-01-22T08:13:15.807Z,5.70
2023-01-22T08:13:56.733Z,5.77
2023-01-22T08:14:36.809Z,5.63
2023-01-22T08:15:18.675Z,5.78
2023-01-22T08:15:58.759Z,5.78
2023-01-22T08:16:39.714Z,5.77
2023-01-22T08:17:19.731Z,5.87
2023-01-22T08:17:59.685Z,5.87
2023-01-22T08:18:40.996Z,5.80
2023-01-22T08:19:21.722Z,5.87
2023-01-22T08:20:01.772Z,5.90
2023-01-22T08:20:42.683Z,5.81
2023-01-22T08:21:22.852Z,5.88
2023-01-22T08:22:03.687Z,5.90
2023-01-22T08:22:45.591Z,5.95
2023-01-22T08:23:25.689Z,5.79
2023-01-22T08:24:20.689Z,5.90
2023-01-22T08:25:01.710Z,5.93
2023-01-22T08:25:41.754Z,5.95
2023-01-22T08:26:21.686Z,6.04
2023-01-22T08:27:01.855Z,5.92
2023-01-22T08:27:42.716Z,6.01
2023-01-22T08:28:22.739Z,6.07
2023-01-22T08:29:07.245Z,5.98
2023-01-22T08:29:47.685Z,6.15
2023-01-22T08:30:21.734Z,6.17
2023-01-22T08:31:19.331Z,6.14
2023-01-22T08:32:00.814Z,6.22
2023-01-22T08:32:48.694Z,6.20
2023-01-22T08:33:22.722Z,6.10
2023-01-22T08:34:09.678Z,6.12
2023-01-22T08:34:43.748Z,6.21
2023-01-22T08:35:24.562Z,5.99
2023-01-22T08:36:05.741Z,6.12
2023-01-22T08:36:45.682Z,6.01
2023-01-22T08:37:25.757Z,6.05
2023-01-22T08:38:07.665Z,6.08
2023-01-22T08:38:47.758Z,6.06
2023-01-22T08:39:27.733Z,6.10
2023-01-22T08:40:08.418Z,6.11
2023-01-22T08:40:57.714Z,6.17
2023-01-22T08:41:41.200Z,6.09
2023-01-22T08:42:22.649Z,5.98
2023-01-22T08:43:02.728Z,5.92
2023-01-22T08:43:42.642Z,5.96
2023-01-22T08:44:22.717Z,6.15
2023-01-22T08:45:02.693Z,5.81
2023-01-22T08:45:42.765Z,5.98
2023-01-22T08:46:22.676Z,5.95
2023-01-22T08:47:03.752Z,6.03
2023-01-22T08:47:43.643Z,6.03
2023-01-22T08:48:24.826Z,6.20
2023-01-22T08:49:06.667Z,6.25
2023-01-22T08:49:46.693Z,6.15
2023-01-22T08:50:26.651Z,6.24
2023-01-22T08:51:07.738Z,6.23
2023-01-22T08:51:47.687Z,6.18
2023-01-22T08:52:27.695Z,6.30
2023-01-22T08:53:07.649Z,6.00
2023-01-22T08:53:47.756Z,6.13
2023-01-22T08:54:27.637Z,6.00
2023-01-22T08:55:09.906Z,6.19
2023-01-22T08:55:56.638Z,6.22
2023-01-22T08:56:36.707Z,6.29
2023-01-22T08:57:16.641Z,6.38
2023-01-22T08:58:03.771Z,6.27
2023-01-22T08:58:43.632Z,6.30
2023-01-22T08:59:23.696Z,6.35
2023-01-22T09:00:04.642Z,6.31
2023-01-22T09:00:44.745Z,6.28
2023-01-22T09:01:26.695Z,6.38
2023-01-22T09:02:10.862Z,6.25
2023-01-22T09:02:50.658Z,6.34
2023-01-22T09:03:33.715Z,6.34
2023-01-22T09:04:15.651Z,6.35
2023-01-22T09:04:59.715Z,6.35
2023-01-22T09:05:39.654Z,6.37
2023-01-22T09:06:23.155Z,6.19
2023-01-22T09:07:03.651Z,6.19
2023-01-22T09:07:43.695Z,6.21
2023-01-22T09:08:23.647Z,6.28
2023-01-22T09:09:03.764Z,6.15
2023-01-22T09:09:44.621Z,6.17
2023-01-22T09:10:25.049Z,6.37
2023-01-22T09:11:05.644Z,6.32
2023-01-22T09:11:46.741Z,6.37
2023-01-22T09:12:26.631Z,6.26
2023-01-22T09:13:07.742Z,6.39
2023-01-22T09:13:47.684Z,6.26
2023-01-22T09:14:27.705Z,6.36
2023-01-22T09:15:08.613Z,6.37
2023-01-22T09:15:48.678Z,6.47